createdAt,value
2023-01-02T00:02:11.360Z,53.00
2023-01-02T00:04:40.010Z,53.15
2023-01-02T00:07:08.709Z,53.02
2023-01-02T00:09:40.788Z,52.62
2023-01-02T00:12:09.505Z,53.17
2023-01-02T00:14:38.144Z,52.93
2023-01-02T00:17:06.876Z,53.04
2023-01-02T00:19:35.594Z,53.02
2023-01-02T00:22:04.147Z,53.02
2023-01-02T00:24:32.636Z,52.89
2023-01-02T00:27:02.532Z,52.64
2023-01-02T00:29:31.545Z,52.99
2023-01-02T00:32:00.636Z,52.69
2023-01-02T00:34:29.190Z,53.45
2023-01-02T00:36:57.770Z,52.79
2023-01-02T00:39:26.519Z,53.11
2023-01-02T00:41:55.076Z,53.17
2023-01-02T00:44:24.929Z,52.97
2023-01-02T00:46:54.369Z,53.03
2023-01-02T00:49:22.876Z,53.09
2023-01-02T00:51:51.426Z,53.02
2023-01-02T00:54:19.897Z,53.01
2023-01-02T00:56:48.319Z,52.65
2023-01-02T00:59:16.759Z,52.19
2023-01-02T01:01:46.867Z,52.73
2023-01-02T01:04:16.014Z,52.48
2023-01-02T01:06:44.514Z,52.86
2023-01-02T01:09:13.493Z,52.95
2023-01-02T01:11:42.028Z,52.95
2023-01-02T01:14:10.717Z,52.97
2023-01-02T01:16:39.322Z,52.92
2023-01-02T01:19:09.598Z,52.66
2023-01-02T01:21:38.066Z,52.52
2023-01-02T01:24:07.377Z,52.78
2023-01-02T01:26:35.889Z,52.76
2023-01-02T01:29:04.366Z,52.88
2023-01-02T01:31:32.934Z,52.92
2023-01-02T01:34:01.580Z,52.35
2023-01-02T01:36:32.069Z,52.65
2023-01-02T01:39:00.537Z,52.90
2023-01-02T01:41:29.087Z,52.69
2023-01-02T01:43:59.036Z,52.65
2023-01-02T01:46:31.111Z,52.72
2023-01-02T01:49:04.298Z,52.57
2023-01-02T01:51:38.429Z,52.86
2023-01-02T01:54:10.349Z,52.76
2023-01-02T01:56:41.610Z,52.40
2023-01-02T01:59:11.308Z,52.94
2023-01-02T02:01:40.507Z,52.50
2023-01-02T02:04:09.468Z,52.66
2023-01-02T02:06:39.444Z,52.39
2023-01-02T02:09:14.829Z,52.48
2023-01-02T02:11:43.450Z,52.59
2023-01-02T02:14:12.035Z,52.33
2023-01-02T02:16:48.523Z,52.33
2023-01-02T02:20:13.807Z,52.30
2023-01-02T02:23:06.412Z,52.59
2023-01-02T02:25:53.226Z,52.71
2023-01-02T02:28:40.290Z,52.68
2023-01-02T02:31:13.831Z,52.79
2023-01-02T02:33:45.723Z,52.54
2023-01-02T02:36:19.257Z,52.30
2023-01-02T02:38:58.190Z,52.26
2023-01-02T02:41:34.898Z,52.64
2023-01-02T02:44:15.304Z,52.29
2023-01-02T02:46:49.883Z,52.11
2023-01-02T02:49:25.687Z,52.59
2023-01-02T02:51:57.830Z,52.71
2023-01-02T02:54:34.143Z,52.69
2023-01-02T02:57:03.425Z,52.40
2023-01-02T02:59:31.990Z,52.34
2023-01-02T03:02:03.407Z,52.14
2023-01-02T03:04:32.963Z,52.27
2023-01-02T03:07:13.028Z,52.35
2023-01-02T03:09:46.107Z,52.76
2023-01-02T03:12:21.476Z,52.12
2023-01-02T03:14:58.331Z,52.11
2023-01-02T03:17:34.991Z,52.17
2023-01-02T03:20:09.429Z,52.26
2023-01-02T03:22:39.614Z,52.46
2023-01-02T03:25:09.118Z,52.21
2023-01-02T03:27:40.072Z,52.16
2023-01-02T03:30:11.344Z,51.99
2023-01-02T03:32:44.725Z,52.15
2023-01-02T03:35:16.397Z,52.59
2023-01-02T03:37:48.769Z,52.43
2023-01-02T03:40:20.674Z,51.99
2023-01-02T03:42:52.735Z,51.87
2023-01-02T03:45:23.744Z,52.39
2023-01-02T03:47:59.514Z,51.83
2023-01-02T03:50:34.715Z,52.06
2023-01-02T03:53:03.216Z,52.35
2023-01-02T03:55:33.209Z,51.77
2023-01-02T03:58:04.679Z,52.10
2023-01-02T04:00:37.764Z,52.07
2023-01-02T04:03:09.685Z,52.39
2023-01-02T04:05:41.734Z,52.17
2023-01-02T04:08:13.316Z,52.29
2023-01-02T04:10:42.137Z,52.54
2023-01-02T04:13:14.393Z,52.13
2023-01-02T04:15:43.162Z,52.04
2023-01-02T04:18:16.960Z,51.90
2023-01-02T04:20:48.540Z,51.86
2023-01-02T04:23:23.371Z,52.24
2023-01-02T04:25:55.297Z,51.88
2023-01-02T04:28:26.001Z,52.19
2023-01-02T04:30:58.941Z,51.84
2023-01-02T04:33:29.309Z,52.31
2023-01-02T04:35:57.741Z,52.03
2023-01-02T04:38:26.239Z,52.00
2023-01-02T04:40:54.714Z,51.80
2023-01-02T04:43:23.153Z,52.09
2023-01-02T04:45:51.788Z,51.83
2023-01-02T04:48:20.535Z,51.84
2023-01-02T04:50:50.363Z,52.05
2023-01-02T04:53:18.910Z,51.91
2023-01-02T04:55:47.409Z,51.97
2023-01-02T04:58:15.966Z,51.61
2023-01-02T05:00:44.427Z,51.60
2023-01-02T05:03:13.257Z,51.69
2023-01-02T05:05:41.609Z,51.84
2023-01-02T05:08:16.116Z,51.62
2023-01-02T05:10:44.906Z,51.71
2023-01-02T05:13:13.310Z,51.94
2023-01-02T05:15:43.497Z,51.94
2023-01-02T05:18:12.000Z,51.42
2023-01-02T05:20:40.698Z,51.97
2023-01-02T05:23:30.382Z,52.21
2023-01-02T05:25:59.203Z,52.19
2023-01-02T05:28:27.626Z,51.57
2023-01-02T05:31:00.433Z,51.70
2023-01-02T05:33:28.906Z,51.94
2023-01-02T05:35:57.621Z,51.91
2023-01-02T05:38:27.407Z,51.47
2023-01-02T05:41:01.299Z,51.43
2023-01-02T05:43:32.426Z,51.84
2023-01-02T05:46:08.132Z,51.67
2023-01-02T05:48:36.674Z,51.54
2023-01-02T05:51:05.660Z,51.59
2023-01-02T05:53:35.623Z,51.55
2023-01-02T05:56:08.274Z,51.55
2023-01-02T05:58:37.786Z,51.87
2023-01-02T06:01:07.384Z,51.80
2023-01-02T06:03:36.237Z,51.53
2023-01-02T06:06:06.201Z,51.67
2023-01-02T06:08:36.520Z,51.24
2023-01-02T06:11:07.644Z,51.50
2023-01-02T06:13:37.515Z,51.32
2023-01-02T06:16:07.482Z,51.68
2023-01-02T06:18:36.880Z,51.92
2023-01-02T06:21:07.048Z,51.82
2023-01-02T06:23:36.966Z,51.60
2023-01-02T06:26:05.685Z,51.40
2023-01-02T06:28:34.355Z,51.54
2023-01-02T06:31:03.546Z,51.29
2023-01-02T06:33:32.375Z,51.87
2023-01-02T06:36:01.682Z,51.41
2023-01-02T06:38:30.200Z,51.20
2023-01-02T06:41:01.558Z,51.34
2023-01-02T06:43:31.003Z,51.69
2023-01-02T06:46:00.059Z,51.67
2023-01-02T06:48:28.736Z,51.26
2023-01-02T06:50:58.538Z,51.03
2023-01-02T06:53:27.134Z,51.05
2023-01-02T06:55:57.195Z,51.23
2023-01-02T06:58:29.555Z,51.26
2023-01-02T07:01:03.347Z,51.71
2023-01-02T07:03:32.394Z,51.50
2023-01-02T07:06:02.785Z,51.45
2023-01-02T07:08:31.400Z,51.31
2023-01-02T07:11:08.562Z,51.46
2023-01-02T07:13:39.161Z,51.69
2023-01-02T07:16:09.794Z,51.23
2023-01-02T07:18:38.852Z,51.38
2023-01-02T07:21:08.764Z,51.10
2023-01-02T07:23:37.678Z,51.11
2023-01-02T07:26:07.321Z,50.94
2023-01-02T07:28:36.572Z,51.15
2023-01-02T07:31:07.824Z,50.96
2023-01-02T07:33:36.404Z,51.45
2023-01-02T07:36:06.585Z,50.83
2023-01-02T07:38:35.175Z,51.40
2023-01-02T07:41:03.666Z,51.13
2023-01-02T07:43:32.235Z,50.85
2023-01-02T07:46:04.152Z,51.37
2023-01-02T07:48:34.024Z,50.89
2023-01-02T07:51:02.817Z,50.61
2023-01-02T07:53:31.727Z,51.06
2023-01-02T07:56:02.098Z,51.22
2023-01-02T07:58:31.065Z,51.08
2023-01-02T08:01:05.096Z,50.69
2023-01-02T08:03:35.867Z,51.06
2023-01-02T08:06:06.108Z,50.54
2023-01-02T08:08:34.613Z,51.06
2023-01-02T08:11:07.320Z,50.71
2023-01-02T08:13:36.313Z,50.88
2023-01-02T08:16:06.419Z,50.87
2023-01-02T08:18:36.458Z,50.91
2023-01-02T08:21:05.498Z,50.38
2023-01-02T08:23:34.676Z,50.39
2023-01-02T08:26:05.866Z,50.89
2023-01-02T08:28:36.190Z,50.85
2023-01-02T08:31:10.322Z,51.37
2023-01-02T08:33:41.457Z,51.04
2023-01-02T08:36:10.903Z,50.99
2023-01-02T08:38:39.407Z,51.52
2023-01-02T08:41:08.181Z,51.20
2023-01-02T08:43:37.473Z,50.74
2023-01-02T08:46:06.554Z,51.43
2023-01-02T08:48:35.497Z,51.00
2023-01-02T08:51:05.576Z,50.60
2023-01-02T08:53:34.083Z,50.42
2023-01-02T08:56:19.456Z,50.72
2023-01-02T08:58:52.821Z,51.06
2023-01-02T09:01:22.462Z,50.72
2023-01-02T09:03:51.048Z,50.77
2023-01-02T09:06:22.240Z,51.04
2023-01-02T09:08:52.401Z,50.46
2023-01-02T09:11:22.830Z,50.64
2023-01-02T09:13:51.295Z,50.85
2023-01-02T09:16:20.023Z,50.41
2023-01-02T09:18:48.491Z,50.32
2023-01-02T09:21:17.175Z,50.90
2023-01-02T09:23:46.975Z,50.32
2023-01-02T09:26:15.696Z,50.60
2023-01-02T09:28:44.776Z,50.81
2023-01-02T09:31:16.740Z,50.69
2023-01-02T09:33:47.178Z,50.85
2023-01-02T09:36:17.761Z,50.33
2023-01-02T09:38:51.982Z,50.87
2023-01-02T09:41:29.118Z,50.41
2023-01-02T09:43:59.402Z,50.14
2023-01-02T09:46:31.510Z,50.11
2023-01-02T09:49:01.171Z,50.15
2023-01-02T09:51:30.173Z,50.18
2023-01-02T09:54:00.185Z,49.79
2023-01-02T09:56:33.992Z,50.00
2023-01-02T09:59:07.382Z,50.31
2023-01-02T10:01:49.358Z,50.56
2023-01-02T10:04:23.963Z,50.12
2023-01-02T10:06:59.871Z,50.32
2023-01-02T10:09:33.573Z,49.65
2023-01-02T10:12:05.956Z,49.40
2023-01-02T10:14:44.255Z,49.67
2023-01-02T10:17:17.435Z,49.47
2023-01-02T10:19:50.174Z,49.97
2023-01-02T10:22:21.400Z,49.22
2023-01-02T10:24:55.918Z,49.74
2023-01-02T10:27:28.582Z,49.77
2023-01-02T10:30:06.378Z,49.52
2023-01-02T10:32:36.020Z,49.77
2023-01-02T10:35:32.422Z,49.73
2023-01-02T10:38:01.010Z,49.57
2023-01-02T10:40:31.746Z,49.84
2023-01-02T10:43:00.590Z,49.98
2023-01-02T10:45:30.289Z,49.86
2023-01-02T10:47:58.886Z,49.62
2023-01-02T10:50:31.888Z,49.86
2023-01-02T10:53:10.080Z,50.38
2023-01-02T10:55:42.141Z,49.99
2023-01-02T10:58:18.393Z,50.02
2023-01-02T11:00:47.037Z,50.40
2023-01-02T11:03:17.019Z,50.03
2023-01-02T11:05:48.188Z,49.93
2023-01-02T11:08:19.703Z,50.00
2023-01-02T11:10:50.976Z,49.87
2023-01-02T11:13:20.952Z,50.40
2023-01-02T11:15:52.255Z,49.95
2023-01-02T11:18:23.955Z,50.24
2023-01-02T11:20:54.436Z,50.11
2023-01-02T11:23:25.426Z,50.40
2023-01-02T11:25:55.606Z,49.92
2023-01-02T11:28:27.441Z,50.28
2023-01-02T11:31:00.519Z,50.21
2023-01-02T11:33:30.578Z,50.10
2023-01-02T11:36:06.097Z,50.25
2023-01-02T11:38:44.047Z,50.64
2023-01-02T11:41:47.064Z,50.97
2023-01-02T11:44:20.580Z,50.29
2023-01-02T11:46:49.973Z,50.84
2023-01-02T11:49:22.095Z,50.57
2023-01-02T11:51:55.520Z,50.45
2023-01-02T11:54:27.103Z,50.61
2023-01-02T11:56:57.108Z,50.40
2023-01-02T11:59:28.428Z,50.90
2023-01-02T12:02:00.660Z,50.73
2023-01-02T12:04:30.962Z,50.60
2023-01-02T12:07:12.204Z,50.59
2023-01-02T12:09:50.058Z,50.65
2023-01-02T12:12:32.523Z,50.43
2023-01-02T12:15:27.665Z,50.68
2023-01-02T12:18:02.772Z,50.90
2023-01-02T12:20:41.203Z,50.64
2023-01-02T12:23:32.051Z,50.80
2023-01-02T12:26:10.479Z,50.84
2023-01-02T12:28:57.291Z,50.49
2023-01-02T12:31:47.016Z,50.82
2023-01-02T12:34:25.432Z,50.42
2023-01-02T12:37:00.215Z,50.56
2023-01-02T12:39:39.253Z,50.89
2023-01-02T12:42:17.614Z,50.58
2023-01-02T12:44:52.103Z,50.71
2023-01-02T12:47:33.267Z,50.81
2023-01-02T12:50:47.023Z,50.73
2023-01-02T12:53:26.100Z,50.77
2023-01-02T12:56:01.388Z,50.95
2023-01-02T12:58:40.415Z,50.89
2023-01-02T13:01:18.843Z,50.83
2023-01-02T13:04:02.766Z,51.11
2023-01-02T13:06:47.235Z,51.01
2023-01-02T13:09:23.453Z,50.62
2023-01-02T13:11:57.841Z,50.88
2023-01-02T13:14:32.513Z,50.95
2023-01-02T13:17:20.428Z,50.55
2023-01-02T13:19:53.720Z,50.81
2023-01-02T13:22:28.651Z,50.91
2023-01-02T13:24:57.906Z,51.13
2023-01-02T13:27:26.547Z,51.24
2023-01-02T13:29:55.003Z,50.59
2023-01-02T13:32:29.618Z,50.90
2023-01-02T13:35:01.469Z,50.80
2023-01-02T13:37:31.074Z,50.88
2023-01-02T13:40:02.717Z,50.67
2023-01-02T13:42:50.961Z,51.01
2023-01-02T13:45:22.948Z,51.07
2023-01-02T13:47:54.830Z,50.67
2023-01-02T13:50:26.800Z,50.74
2023-01-02T13:53:02.432Z,50.98
2023-01-02T13:55:33.555Z,50.73
2023-01-02T13:58:53.849Z,51.13
2023-01-02T14:02:04.926Z,51.20
2023-01-02T14:04:37.641Z,50.91
2023-01-02T14:07:49.437Z,50.92
2023-01-02T14:10:31.508Z,50.77
2023-01-02T14:13:08.902Z,50.68
2023-01-02T14:16:13.760Z,51.06
2023-01-02T14:18:46.377Z,51.04
2023-01-02T14:21:17.829Z,51.36
2023-01-02T14:24:16.060Z,50.93
2023-01-02T14:26:40.923Z,51.23
2023-01-02T14:29:12.887Z,51.37
2023-01-02T14:31:41.374Z,51.30
2023-01-02T14:34:11.765Z,51.37
2023-01-02T14:36:45.230Z,51.31
2023-01-02T14:39:24.959Z,51.64
2023-01-02T14:42:40.219Z,51.35
2023-01-02T14:45:17.503Z,51.61
2023-01-02T14:47:48.731Z,51.29
2023-01-02T14:50:20.152Z,51.35
2023-01-02T14:52:54.051Z,51.73
2023-01-02T14:55:23.690Z,51.48
2023-01-02T14:57:53.858Z,51.69
2023-01-02T15:00:27.975Z,51.70
2023-01-02T15:03:00.977Z,51.47
2023-01-02T15:05:35.390Z,51.48
2023-01-02T15:08:08.697Z,51.87
2023-01-02T15:10:56.160Z,51.67
2023-01-02T15:13:26.858Z,51.75
2023-01-02T15:15:57.718Z,51.32
2023-01-02T15:18:29.478Z,51.62
2023-01-02T15:21:05.503Z,51.31
2023-01-02T15:23:35.885Z,51.32
2023-01-02T15:26:32.377Z,51.71
2023-01-02T15:29:03.953Z,51.55
2023-01-02T15:31:32.721Z,51.83
2023-01-02T15:34:02.103Z,51.92
2023-01-02T15:36:35.505Z,51.94
2023-01-02T15:39:08.976Z,51.49
2023-01-02T15:41:43.153Z,51.56
2023-01-02T15:44:29.222Z,51.76
2023-01-02T15:47:00.596Z,51.70
2023-01-02T15:49:29.689Z,51.76
2023-01-02T15:51:58.968Z,51.68
2023-01-02T15:54:29.339Z,51.72
2023-01-02T15:57:05.985Z,51.91
2023-01-02T15:59:37.042Z,51.77
2023-01-02T16:02:05.737Z,52.06
2023-01-02T16:04:35.081Z,52.00
2023-01-02T16:07:15.263Z,51.96
2023-01-02T16:09:51.710Z,51.88
2023-01-02T16:12:22.138Z,52.04
2023-01-02T16:14:53.374Z,51.57
2023-01-02T16:17:24.262Z,51.78
2023-01-02T16:19:58.690Z,51.79
2023-01-02T16:22:30.409Z,51.68
2023-01-02T16:25:04.713Z,52.01
2023-01-02T16:27:35.606Z,51.84
2023-01-02T16:30:17.180Z,51.90
2023-01-02T16:32:48.810Z,51.72
2023-01-02T16:35:20.803Z,52.12
2023-01-02T16:37:54.412Z,51.58
2023-01-02T16:40:59.828Z,51.97
2023-01-02T16:43:33.390Z,51.96
2023-01-02T16:46:06.007Z,51.65
2023-01-02T16:48:36.407Z,51.53
2023-01-02T16:51:04.825Z,51.72
2023-01-02T16:53:34.348Z,51.46
2023-01-02T16:56:04.341Z,51.67
2023-01-02T16:58:32.835Z,51.81
2023-01-02T17:01:01.461Z,51.58
2023-01-02T17:03:30.323Z,51.55
2023-01-02T17:06:00.799Z,51.64
2023-01-02T17:08:32.283Z,51.53
2023-01-02T17:11:01.257Z,51.43
2023-01-02T17:13:31.406Z,51.63
2023-01-02T17:16:00.064Z,52.03
2023-01-02T17:18:28.666Z,51.36
2023-01-02T17:20:57.454Z,51.45
2023-01-02T17:23:25.996Z,51.56
2023-01-02T17:25:54.656Z,51.46
2023-01-02T17:28:23.324Z,51.42
2023-01-02T17:30:53.046Z,51.88
2023-01-02T17:33:21.680Z,51.58
2023-01-02T17:35:51.012Z,51.62
2023-01-02T17:38:19.699Z,51.78
2023-01-02T17:40:48.660Z,51.44
2023-01-02T17:43:17.418Z,51.83
2023-01-02T17:45:46.016Z,51.36
2023-01-02T17:48:21.745Z,51.65
2023-01-02T17:50:52.671Z,51.99
2023-01-02T17:53:21.702Z,51.59
2023-01-02T17:56:20.928Z,51.83
2023-01-02T17:58:42.385Z,51.97
2023-01-02T18:01:16.904Z,51.56
2023-01-02T18:03:47.222Z,52.14
2023-01-02T18:06:16.023Z,51.53
2023-01-02T18:08:45.046Z,51.83
2023-01-02T18:11:15.604Z,51.64
2023-01-02T18:13:47.219Z,51.92
2023-01-02T18:16:18.542Z,51.74
2023-01-02T18:18:49.573Z,51.96
2023-01-02T18:21:22.598Z,51.57
2023-01-02T18:23:55.712Z,51.90
2023-01-02T18:26:27.422Z,51.67
2023-01-02T18:29:02.832Z,51.39
2023-01-02T18:31:40.760Z,51.42
2023-01-02T18:34:46.400Z,51.45
2023-01-02T18:37:10.290Z,51.80
2023-01-02T18:39:43.418Z,51.80
2023-01-02T18:42:13.802Z,51.55
2023-01-02T18:44:42.894Z,51.53
2023-01-02T18:47:20.591Z,51.78
2023-01-02T18:49:50.507Z,52.03
2023-01-02T18:52:25.358Z,51.65
2023-01-02T18:54:59.746Z,51.79
2023-01-02T18:57:32.340Z,51.85
2023-01-02T19:00:08.097Z,51.75
2023-01-02T19:02:52.531Z,51.58
2023-01-02T19:05:25.164Z,51.34
2023-01-02T19:07:57.354Z,51.47
2023-01-02T19:10:36.550Z,51.46
2023-01-02T19:13:07.902Z,51.59
2023-01-02T19:15:44.676Z,51.95
2023-01-02T19:18:22.683Z,51.64
2023-01-02T19:20:56.766Z,51.60
2023-01-02T19:23:29.538Z,51.57
2023-01-02T19:26:02.558Z,51.99
2023-01-02T19:28:31.936Z,51.85
2023-01-02T19:31:00.581Z,51.69
2023-01-02T19:33:40.397Z,51.67
2023-01-02T19:36:17.759Z,51.96
2023-01-02T19:38:46.960Z,51.75
2023-01-02T19:41:15.412Z,51.27
2023-01-02T19:43:44.201Z,51.71
2023-01-02T19:46:12.746Z,51.81
2023-01-02T19:48:41.277Z,51.45
2023-01-02T19:51:09.770Z,51.77
2023-01-02T19:53:40.011Z,51.83
2023-01-02T19:56:08.940Z,51.64
2023-01-02T19:58:37.476Z,51.46
2023-01-02T20:01:06.270Z,51.70
2023-01-02T20:03:36.050Z,51.62
2023-01-02T20:06:04.733Z,51.85
2023-01-02T20:08:34.663Z,52.09
2023-01-02T20:11:04.546Z,51.70
2023-01-02T20:13:33.086Z,52.02
2023-01-02T20:16:01.765Z,51.77
2023-01-02T20:18:31.843Z,51.87
2023-01-02T20:21:00.385Z,51.70
2023-01-02T20:23:29.678Z,51.56
2023-01-02T20:25:58.164Z,51.61
2023-01-02T20:28:27.971Z,51.30
2023-01-02T20:30:56.429Z,51.79
2023-01-02T20:33:24.891Z,51.59
2023-01-02T20:35:54.292Z,51.34
2023-01-02T20:38:23.115Z,51.89
2023-01-02T20:40:52.355Z,51.64
2023-01-02T20:43:21.932Z,51.41
2023-01-02T20:45:51.717Z,51.89
2023-01-02T20:48:20.173Z,51.86
2023-01-02T20:50:48.616Z,51.90
2023-01-02T20:53:17.010Z,51.75
2023-01-02T20:55:46.254Z,51.42
2023-01-02T20:58:15.430Z,51.54
2023-01-02T21:00:43.930Z,51.89
2023-01-02T21:03:13.796Z,51.72
2023-01-02T21:05:42.631Z,51.82
2023-01-02T21:08:11.174Z,51.63
2023-01-02T21:10:39.572Z,51.47
2023-01-02T21:13:11.640Z,51.55
2023-01-02T21:15:45.895Z,51.82
2023-01-02T21:18:18.286Z,51.48
2023-01-02T21:20:48.336Z,51.49
2023-01-02T21:23:17.601Z,51.62
2023-01-02T21:25:46.407Z,51.54
2023-01-02T21:28:15.945Z,51.69
2023-01-02T21:30:45.124Z,51.78
2023-01-02T21:33:14.522Z,51.49
2023-01-02T21:35:46.396Z,51.74
2023-01-02T21:38:15.185Z,51.57
2023-01-02T21:40:45.837Z,51.73
2023-01-02T21:43:14.468Z,51.56
2023-01-02T21:45:42.946Z,51.65
2023-01-02T21:48:11.462Z,51.70
2023-01-02T21:50:39.912Z,51.51
2023-01-02T21:53:09.653Z,51.33
2023-01-02T21:55:38.109Z,51.92
2023-01-02T21:58:14.614Z,51.69
2023-01-02T22:00:44.056Z,51.52
2023-01-02T22:03:13.272Z,51.92
2023-01-02T22:05:42.062Z,51.52
2023-01-02T22:08:11.825Z,51.63
2023-01-02T22:10:40.275Z,51.43
2023-01-02T22:13:08.699Z,51.48
2023-01-02T22:15:37.143Z,51.47
2023-01-02T22:18:05.678Z,51.56
2023-01-02T22:20:34.191Z,51.76
2023-01-02T22:23:02.605Z,51.74
2023-01-02T22:25:32.609Z,51.54
2023-01-02T22:28:01.224Z,51.89
2023-01-02T22:30:34.560Z,51.71
2023-01-02T22:33:03.875Z,51.52
2023-01-02T22:35:32.366Z,51.99
2023-01-02T22:38:00.888Z,51.60
2023-01-02T22:40:29.603Z,51.67
2023-01-02T22:43:02.180Z,51.35
2023-01-02T22:45:35.850Z,51.85
2023-01-02T22:48:08.674Z,51.68
2023-01-02T22:50:43.043Z,51.95
2023-01-02T22:53:19.964Z,51.68
2023-01-02T22:55:49.141Z,51.94
2023-01-02T22:58:19.120Z,51.43
2023-01-02T23:00:49.204Z,51.73
2023-01-02T23:03:17.924Z,51.65
2023-01-02T23:05:46.400Z,51.74
2023-01-02T23:08:14.951Z,51.38
2023-01-02T23:10:43.434Z,51.85
2023-01-02T23:13:11.888Z,51.37
2023-01-02T23:16:01.697Z,51.71
2023-01-02T23:18:53.208Z,51.43
2023-01-02T23:21:26.444Z,51.54
2023-01-02T23:23:55.152Z,51.60
2023-01-02T23:26:25.486Z,51.70
2023-01-02T23:29:09.961Z,51.83
2023-01-02T23:31:41.332Z,51.66
2023-01-02T23:34:11.229Z,51.68
2023-01-02T23:36:39.946Z,51.45
2023-01-02T23:39:11.641Z,51.56
2023-01-02T23:41:40.184Z,51.79
2023-01-02T23:44:09.790Z,51.31
2023-01-02T23:46:40.530Z,51.65
2023-01-02T23:49:10.840Z,51.77
2023-01-02T23:51:39.515Z,51.60
2023-01-02T23:54:08.947Z,51.52
2023-01-02T23:56:39.968Z,51.56
2023-01-02T23:59:11.003Z,51.80
